Terminal Aerodrome Forecast
Issued by NWS

Home | Current Version | Previous Version | Text Only | Print | Product List | Glossary On
Versions: 1 2 3 4 5 6 7 8 9 10 11 12 13 14 15 16 17 18 19 20 21
333
FTUS42 KMLB 241435 AAA
TAFSUA
TAF AMD
KSUA 241435Z 2415/2512 23008KT P6SM VCSH BKN008 BKN020
     FM241600 25010KT P6SM VCTS SCT030CB BKN060
      TEMPO 2417/2420 3SM TSRA BKN025CB
     FM242200 26008KT P6SM SCT030 SCT060
     FM250600 26008KT P6SM FEW250=

USA.gov is the U.S. government's official web portal to all federal, state and local government web resources and services.